createdAt,value
2022-09-01T00:00:14.850Z,21.67
2022-09-01T00:06:59.746Z,22.35
2022-09-01T00:13:42.181Z,21.75
2022-09-01T00:20:24.764Z,19.25
2022-09-01T00:27:07.189Z,19.42
2022-09-01T00:33:51.253Z,18.52
2022-09-01T00:40:34.015Z,20.05
2022-09-01T00:47:16.641Z,17.95
2022-09-01T00:54:01.363Z,19.77
2022-09-01T01:00:46.957Z,18.10
2022-09-01T01:07:29.435Z,19.63
2022-09-01T01:14:17.101Z,20.08
2022-09-01T01:21:24.688Z,18.00
2022-09-01T01:28:20.025Z,17.98
2022-09-01T01:35:06.873Z,19.20
2022-09-01T01:41:50.645Z,19.55
2022-09-01T01:48:37.988Z,18.05
2022-09-01T01:55:23.515Z,17.67
2022-09-01T02:02:09.645Z,17.42
2022-09-01T02:08:56.609Z,19.33
2022-09-01T02:15:44.382Z,18.13
2022-09-01T02:22:26.903Z,19.33
2022-09-01T02:29:18.969Z,18.15
2022-09-01T02:36:04.327Z,17.00
2022-09-01T02:42:47.921Z,17.63
2022-09-01T02:49:30.928Z,17.42
2022-09-01T02:56:14.499Z,16.58
2022-09-01T03:02:59.331Z,18.05
2022-09-01T03:09:43.218Z,20.85
2022-09-01T03:16:25.731Z,17.52
2022-09-01T03:23:10.782Z,18.35
2022-09-01T03:29:53.218Z,19.52
2022-09-01T03:36:35.679Z,18.52
2022-09-01T03:43:19.959Z,18.52
2022-09-01T03:50:02.378Z,18.83
2022-09-01T03:56:45.447Z,19.60
2022-09-01T04:03:34.551Z,18.98
2022-09-01T04:10:19.054Z,20.60
2022-09-01T04:17:20.126Z,20.63
2022-09-01T04:24:05.152Z,22.45
2022-09-01T04:30:48.623Z,21.52
2022-09-01T04:37:36.476Z,20.83
2022-09-01T04:44:19.450Z,22.45
2022-09-01T04:51:01.870Z,23.00
2022-09-01T04:57:49.489Z,22.58
2022-09-01T05:04:34.011Z,23.13
2022-09-01T05:11:17.770Z,21.15
2022-09-01T05:18:09.908Z,20.23
2022-09-01T05:24:54.999Z,21.08
2022-09-01T05:31:38.783Z,21.67
2022-09-01T05:38:21.827Z,21.27
2022-09-01T05:45:04.753Z,20.42
2022-09-01T05:51:51.003Z,18.70
2022-09-01T06:05:40.888Z,17.67
2022-09-01T06:12:27.993Z,18.80
2022-09-01T06:19:12.559Z,20.50
2022-09-01T06:25:59.797Z,16.83
2022-09-01T06:32:45.352Z,17.83
2022-09-01T06:39:27.848Z,15.48
2022-09-01T06:46:10.687Z,14.93
2022-09-01T07:00:18.747Z,15.98
2022-09-01T07:07:54.190Z,14.93
2022-09-01T07:14:27.106Z,16.35
2022-09-01T07:21:38.796Z,14.63
2022-09-01T07:28:17.100Z,13.57
2022-09-01T07:35:00.882Z,15.50
2022-09-01T07:50:09.764Z,11.43
2022-09-01T07:56:23.571Z,10.32
2022-09-01T08:03:07.119Z,9.82
2022-09-01T08:09:49.924Z,11.25
2022-09-01T08:16:39.457Z,9.48
2022-09-01T08:23:26.824Z,9.20
2022-09-01T08:30:13.088Z,9.30
2022-09-01T08:36:56.276Z,8.85
2022-09-01T08:43:57.554Z,8.68
2022-09-01T08:50:41.167Z,7.22
2022-09-01T08:57:53.851Z,6.40
2022-09-01T09:05:22.953Z,7.38
2022-09-01T09:12:24.564Z,5.45
2022-09-01T09:19:25.446Z,7.15
2022-09-01T09:26:08.338Z,6.25
2022-09-01T09:33:37.248Z,6.88
2022-09-01T09:40:17.368Z,6.40
2022-09-01T09:47:00.626Z,5.55
2022-09-01T09:53:43.258Z,5.63
2022-09-01T10:00:34.255Z,6.03
2022-09-01T10:07:46.418Z,5.35
2022-09-01T10:14:53.344Z,5.03
2022-09-01T10:21:41.298Z,4.75
2022-09-01T10:28:24.456Z,5.07
2022-09-01T10:35:14.547Z,4.22
2022-09-01T10:42:04.536Z,4.70
2022-09-01T10:48:55.678Z,5.20
2022-09-01T10:55:59.587Z,4.88
2022-09-01T11:10:54.463Z,4.70
2022-09-01T11:17:39.859Z,4.35
2022-09-01T11:24:44.150Z,4.13
2022-09-01T11:31:41.882Z,3.97
2022-09-01T11:38:25.470Z,3.60
2022-09-01T11:45:22.070Z,4.43
2022-09-01T11:52:05.754Z,4.00
2022-09-01T11:58:48.127Z,4.07
2022-09-01T12:05:32.215Z,3.80
2022-09-01T12:12:35.908Z,3.88
2022-09-01T12:19:27.594Z,3.40
2022-09-01T12:26:16.224Z,3.97
2022-09-01T12:40:33.394Z,3.22
2022-09-01T12:47:34.047Z,3.42
2022-09-01T12:54:24.442Z,3.50
2022-09-01T13:01:16.208Z,4.30
2022-09-01T13:08:10.625Z,4.65
2022-09-01T13:14:53.034Z,3.92
2022-09-01T13:21:36.278Z,4.15
2022-09-01T13:28:20.420Z,3.80
2022-09-01T13:35:03.629Z,3.95
2022-09-01T13:41:47.109Z,4.70
2022-09-01T13:49:02.465Z,4.57
2022-09-01T13:55:34.731Z,4.55
2022-09-01T14:02:17.162Z,3.83
2022-09-01T14:09:00.748Z,3.38
2022-09-01T14:15:44.510Z,3.30
2022-09-01T14:22:26.966Z,4.28
2022-09-01T14:29:09.433Z,3.50
2022-09-01T14:35:51.792Z,4.90
2022-09-01T14:42:35.596Z,3.33
2022-09-01T14:49:22.496Z,3.20
2022-09-01T14:56:05.216Z,2.97
2022-09-01T15:02:48.427Z,3.50
2022-09-01T15:09:31.077Z,3.40
2022-09-01T15:16:19.560Z,2.88
2022-09-01T15:23:02.044Z,2.53
2022-09-01T15:29:48.888Z,4.22
2022-09-01T15:36:31.856Z,2.78
2022-09-01T15:43:14.223Z,2.83
2022-09-01T15:49:59.588Z,4.03
2022-09-01T15:56:45.034Z,4.57
2022-09-01T16:03:30.083Z,3.13
2022-09-01T16:10:12.775Z,4.10
2022-09-01T16:17:13.825Z,3.38
2022-09-01T16:23:56.288Z,3.83
2022-09-01T16:30:39.670Z,2.95
2022-09-01T16:37:59.452Z,4.20
2022-09-01T16:44:47.629Z,2.92
2022-09-01T16:51:43.260Z,3.00
2022-09-01T16:58:48.528Z,5.78
2022-09-01T17:05:45.545Z,4.15
2022-09-01T17:12:35.638Z,4.45
2022-09-01T17:19:20.306Z,3.92
2022-09-01T17:26:16.596Z,3.97
2022-09-01T17:33:17.272Z,3.85
2022-09-01T17:40:41.629Z,6.30
2022-09-01T17:47:38.735Z,5.70
2022-09-01T17:54:51.042Z,5.95
2022-09-01T18:02:12.547Z,6.00
2022-09-01T18:08:58.266Z,9.57
2022-09-01T18:15:57.261Z,3.65
2022-09-01T18:29:36.003Z,5.30
2022-09-01T18:36:39.555Z,6.10
2022-09-01T18:43:33.638Z,6.47
2022-09-01T18:50:32.106Z,4.65
2022-09-01T18:57:21.063Z,4.53
2022-09-01T19:04:39.363Z,4.13
2022-09-01T19:11:39.774Z,5.68
2022-09-01T19:18:39.530Z,4.55
2022-09-01T19:25:36.755Z,6.03
2022-09-01T19:32:22.315Z,18.52
2022-09-01T19:39:11.810Z,7.43
2022-09-01T19:46:11.825Z,14.75
2022-09-01T19:53:00.516Z,5.45
2022-09-01T19:59:42.837Z,4.15
2022-09-01T20:06:35.840Z,4.53
2022-09-01T20:13:24.878Z,4.68
2022-09-01T20:20:36.641Z,5.82
2022-09-01T20:27:24.772Z,4.25
2022-09-01T20:34:32.619Z,8.32
2022-09-01T20:41:43.002Z,4.07
2022-09-01T20:48:27.483Z,4.35
2022-09-01T20:55:35.789Z,5.60
2022-09-01T21:02:43.192Z,4.40
2022-09-01T21:09:49.798Z,3.95
2022-09-01T21:17:19.038Z,4.93
2022-09-01T21:24:05.322Z,6.28
2022-09-01T21:30:51.955Z,6.78
2022-09-01T21:37:35.060Z,4.93
2022-09-01T21:44:17.731Z,5.07
2022-09-01T21:51:00.508Z,5.78
2022-09-01T21:57:43.257Z,5.13
2022-09-01T22:04:25.614Z,5.93
2022-09-01T22:11:09.857Z,5.45
2022-09-01T22:17:53.366Z,7.38
2022-09-01T22:24:36.328Z,5.55
2022-09-01T22:31:20.669Z,6.47
2022-09-01T22:38:03.046Z,6.25
2022-09-01T22:44:45.383Z,6.07
2022-09-01T22:51:28.332Z,6.20
2022-09-01T22:58:11.248Z,6.43
2022-09-01T23:04:53.634Z,5.97
2022-09-01T23:11:36.451Z,5.45
2022-09-01T23:18:19.241Z,5.97
2022-09-01T23:25:01.678Z,8.45
2022-09-01T23:31:47.667Z,7.57
2022-09-01T23:38:31.725Z,5.95
2022-09-01T23:45:14.192Z,6.25
2022-09-01T23:51:56.808Z,6.20
2022-09-01T23:58:40.126Z,6.25
